createdAt,value
2023-01-08T00:01:39.267Z,12.60
2023-01-08T00:03:41.235Z,12.60
2023-01-08T00:05:43.191Z,12.60
2023-01-08T00:07:44.790Z,12.60
2023-01-08T00:09:47.758Z,12.60
2023-01-08T00:11:49.840Z,12.60
2023-01-08T00:13:51.481Z,12.60
2023-01-08T00:15:53.288Z,12.60
2023-01-08T00:17:54.878Z,12.60
2023-01-08T00:19:56.514Z,12.60
2023-01-08T00:21:58.204Z,12.60
2023-01-08T00:23:59.895Z,12.70
2023-01-08T00:26:06.044Z,12.70
2023-01-08T00:28:07.805Z,12.70
2023-01-08T00:30:09.613Z,12.70
2023-01-08T00:32:11.253Z,12.70
2023-01-08T00:34:12.895Z,12.70
2023-01-08T00:36:15.857Z,12.70
2023-01-08T00:38:17.455Z,12.70
2023-01-08T00:40:19.149Z,12.80
2023-01-08T00:42:20.973Z,12.80
2023-01-08T00:44:22.754Z,12.90
2023-01-08T00:46:24.447Z,12.80
2023-01-08T00:48:26.214Z,12.70
2023-01-08T00:50:27.925Z,12.70
2023-01-08T00:52:29.631Z,12.70
2023-01-08T00:54:31.259Z,12.80
2023-01-08T00:56:32.948Z,12.80
2023-01-08T00:58:34.826Z,12.70
2023-01-08T01:00:36.496Z,12.70
2023-01-08T01:02:38.465Z,12.70
2023-01-08T01:04:40.142Z,12.70
2023-01-08T01:06:42.044Z,12.80
2023-01-08T01:08:44.329Z,12.80
2023-01-08T01:10:45.986Z,12.80
2023-01-08T01:12:47.630Z,12.80
2023-01-08T01:14:49.269Z,12.80
2023-01-08T01:16:51.011Z,12.80
2023-01-08T01:18:53.518Z,12.80
2023-01-08T01:20:55.290Z,12.80
2023-01-08T01:22:56.966Z,12.80
2023-01-08T01:24:58.766Z,12.80
2023-01-08T01:27:00.565Z,12.80
2023-01-08T01:29:02.297Z,12.80
2023-01-08T01:31:04.281Z,12.80
2023-01-08T01:33:05.973Z,12.80
2023-01-08T01:35:07.799Z,12.80
2023-01-08T01:37:12.025Z,12.80
2023-01-08T01:39:13.722Z,12.80
2023-01-08T01:41:37.116Z,12.80
2023-01-08T01:43:40.221Z,12.80
2023-01-08T01:45:42.364Z,12.80
2023-01-08T01:47:46.375Z,12.80
2023-01-08T01:50:08.234Z,12.80
2023-01-08T01:52:10.029Z,12.80
2023-01-08T01:54:12.682Z,12.80
2023-01-08T01:56:14.328Z,12.80
2023-01-08T01:58:27.571Z,12.80
2023-01-08T02:00:29.342Z,12.80
2023-01-08T02:02:34.290Z,12.80
2023-01-08T02:04:35.928Z,12.80
2023-01-08T02:06:40.345Z,12.80
2023-01-08T02:08:54.986Z,12.80
2023-01-08T02:11:14.376Z,12.80
2023-01-08T02:13:20.515Z,12.80
2023-01-08T02:15:27.376Z,12.80
2023-01-08T02:17:38.257Z,12.80
2023-01-08T02:19:45.781Z,12.90
2023-01-08T02:21:50.287Z,12.90
2023-01-08T02:24:02.383Z,12.90
2023-01-08T02:26:09.843Z,12.90
2023-01-08T02:28:12.355Z,12.90
2023-01-08T02:30:14.056Z,12.90
2023-01-08T02:32:16.112Z,12.90
2023-01-08T02:34:17.766Z,12.90
2023-01-08T02:36:28.349Z,12.90
2023-01-08T02:38:30.400Z,12.90
2023-01-08T02:40:55.436Z,12.90
2023-01-08T02:42:57.139Z,12.90
2023-01-08T02:45:01.928Z,12.90
2023-01-08T02:47:05.914Z,12.90
2023-01-08T02:49:09.605Z,12.90
2023-01-08T02:51:13.597Z,12.90
2023-01-08T02:53:26.423Z,12.90
2023-01-08T02:55:28.662Z,13.00
2023-01-08T02:57:32.263Z,13.00
2023-01-08T02:59:34.499Z,12.90
2023-01-08T03:01:37.046Z,13.10
2023-01-08T03:03:39.947Z,13.00
2023-01-08T03:05:43.145Z,13.00
2023-01-08T03:07:44.899Z,13.00
2023-01-08T03:09:46.695Z,13.00
2023-01-08T03:12:00.260Z,13.00
2023-01-08T03:14:16.100Z,13.00
2023-01-08T03:16:22.865Z,13.00
2023-01-08T03:18:27.926Z,13.00
2023-01-08T03:20:30.546Z,12.90
2023-01-08T03:22:33.117Z,12.90
2023-01-08T03:24:36.965Z,12.90
2023-01-08T03:26:39.070Z,12.90
2023-01-08T03:28:45.095Z,12.90
2023-01-08T03:30:47.396Z,12.90
2023-01-08T03:32:50.172Z,12.90
2023-01-08T03:34:53.054Z,12.90
2023-01-08T03:36:57.265Z,12.90
2023-01-08T03:39:00.545Z,13.00
2023-01-08T03:41:07.161Z,12.90
2023-01-08T03:43:08.867Z,12.90
2023-01-08T03:45:10.566Z,12.90
2023-01-08T03:47:12.902Z,12.90
2023-01-08T03:49:15.231Z,12.80
2023-01-08T03:51:18.720Z,12.90
2023-01-08T03:53:20.303Z,12.80
2023-01-08T03:55:21.933Z,12.90
2023-01-08T03:57:23.660Z,12.80
2023-01-08T03:59:25.433Z,12.80
2023-01-08T04:01:27.215Z,12.90
2023-01-08T04:03:28.893Z,12.80
2023-01-08T04:05:30.573Z,12.80
2023-01-08T04:07:32.201Z,12.90
2023-01-08T04:09:33.845Z,12.90
2023-01-08T04:11:37.478Z,12.80
2023-01-08T04:13:39.095Z,12.90
2023-01-08T04:15:40.817Z,12.80
2023-01-08T04:17:42.498Z,12.80
2023-01-08T04:19:44.095Z,12.90
2023-01-08T04:21:45.716Z,12.90
2023-01-08T04:23:47.488Z,12.90
2023-01-08T04:25:49.067Z,12.90
2023-01-08T04:27:50.672Z,12.80
2023-01-08T04:29:52.270Z,12.80
2023-01-08T04:31:53.886Z,12.90
2023-01-08T04:33:55.544Z,12.80
2023-01-08T04:35:57.187Z,12.80
2023-01-08T04:37:58.788Z,12.80
2023-01-08T04:40:00.411Z,12.80
2023-01-08T04:42:02.073Z,12.80
2023-01-08T04:44:03.691Z,12.80
2023-01-08T04:46:07.642Z,12.80
2023-01-08T04:48:09.390Z,12.80
2023-01-08T04:50:11.333Z,12.80
2023-01-08T04:52:12.983Z,12.80
2023-01-08T04:54:14.678Z,12.80
2023-01-08T04:56:16.394Z,12.80
2023-01-08T04:58:18.167Z,12.80
2023-01-08T05:00:19.889Z,12.80
2023-01-08T05:02:21.824Z,12.80
2023-01-08T05:04:23.685Z,12.80
2023-01-08T05:06:25.899Z,12.80
2023-01-08T05:08:27.521Z,12.80
2023-01-08T05:10:29.103Z,12.80
2023-01-08T05:12:30.750Z,12.80
2023-01-08T05:14:32.456Z,12.80
2023-01-08T05:16:34.104Z,12.80
2023-01-08T05:18:35.788Z,12.80
2023-01-08T05:20:37.426Z,12.70
2023-01-08T05:22:39.026Z,12.70
2023-01-08T05:24:40.649Z,12.70
2023-01-08T05:26:42.367Z,12.70
2023-01-08T05:28:44.085Z,12.70
2023-01-08T05:30:45.781Z,12.70
2023-01-08T05:32:47.397Z,12.70
2023-01-08T05:34:49.037Z,12.70
2023-01-08T05:36:50.660Z,12.70
2023-01-08T05:38:52.299Z,12.70
2023-01-08T05:40:54.405Z,12.70
2023-01-08T05:42:56.018Z,12.70
2023-01-08T05:44:57.658Z,12.70
2023-01-08T05:46:59.286Z,12.70
2023-01-08T05:49:00.931Z,12.70
2023-01-08T05:51:03.292Z,12.70
2023-01-08T05:53:08.751Z,12.70
2023-01-08T05:55:10.476Z,12.60
2023-01-08T05:57:12.114Z,12.60
2023-01-08T05:59:14.190Z,12.60
2023-01-08T06:01:16.270Z,12.60
2023-01-08T06:03:20.074Z,12.60
2023-01-08T06:05:21.669Z,12.60
2023-01-08T06:07:23.262Z,12.60
2023-01-08T06:09:24.859Z,12.60
2023-01-08T06:11:26.608Z,12.60
2023-01-08T06:13:28.418Z,12.60
2023-01-08T06:15:30.092Z,12.60
2023-01-08T06:17:31.901Z,12.60
2023-01-08T06:19:33.538Z,12.60
2023-01-08T06:21:35.151Z,12.60
2023-01-08T06:23:36.776Z,12.60
2023-01-08T06:25:38.470Z,12.60
2023-01-08T06:27:40.766Z,12.60
2023-01-08T06:29:42.431Z,12.60
2023-01-08T06:31:44.146Z,12.70
2023-01-08T06:33:45.901Z,12.80
2023-01-08T06:35:47.552Z,12.70
2023-01-08T06:37:49.197Z,12.60
2023-01-08T06:39:50.806Z,12.70
2023-01-08T06:41:52.442Z,12.60
2023-01-08T06:43:54.047Z,12.60
2023-01-08T06:45:57.898Z,12.60
2023-01-08T06:48:03.535Z,12.60
2023-01-08T06:50:06.726Z,12.70
2023-01-08T06:52:08.322Z,12.60
2023-01-08T06:54:11.096Z,12.60
2023-01-08T06:56:13.793Z,12.70
2023-01-08T06:58:15.470Z,12.60
2023-01-08T07:00:17.455Z,12.60
2023-01-08T07:02:19.259Z,12.60
2023-01-08T07:04:21.064Z,12.70
2023-01-08T07:06:23.091Z,12.60
2023-01-08T07:08:24.765Z,12.60
2023-01-08T07:10:27.497Z,12.60
2023-01-08T07:12:29.147Z,12.60
2023-01-08T07:14:30.833Z,12.60
2023-01-08T07:16:32.460Z,12.70
2023-01-08T07:18:34.258Z,12.60
2023-01-08T07:20:36.225Z,12.60
2023-01-08T07:22:37.870Z,12.60
2023-01-08T07:24:39.466Z,12.60
2023-01-08T07:26:41.124Z,12.60
2023-01-08T07:28:43.472Z,12.60
2023-01-08T07:30:45.437Z,12.60
2023-01-08T07:32:47.045Z,12.60
2023-01-08T07:34:48.636Z,12.60
2023-01-08T07:36:50.310Z,12.60
2023-01-08T07:38:51.968Z,12.60
2023-01-08T07:40:53.621Z,12.60
2023-01-08T07:42:59.537Z,12.70
2023-01-08T07:45:01.169Z,12.60
2023-01-08T07:47:02.826Z,12.60
2023-01-08T07:49:05.135Z,12.60
2023-01-08T07:51:07.556Z,12.60
2023-01-08T07:53:09.904Z,12.60
2023-01-08T07:55:11.520Z,12.60
2023-01-08T07:57:13.259Z,12.60
2023-01-08T07:59:14.920Z,12.60
2023-01-08T08:01:16.674Z,12.70
2023-01-08T08:03:18.405Z,12.60
2023-01-08T08:05:20.062Z,12.60
2023-01-08T08:07:21.747Z,12.60
2023-01-08T08:09:23.409Z,12.60
2023-01-08T08:11:25.143Z,12.70
2023-01-08T08:13:27.068Z,12.60
2023-01-08T08:15:28.691Z,12.70
2023-01-08T08:17:30.349Z,12.70
2023-01-08T08:19:31.945Z,12.70
2023-01-08T08:21:33.748Z,12.70
2023-01-08T08:23:36.803Z,12.70
2023-01-08T08:25:38.816Z,12.70
2023-01-08T08:27:41.275Z,12.80
2023-01-08T08:29:42.952Z,12.70
2023-01-08T08:31:44.606Z,12.70
2023-01-08T08:33:46.359Z,12.70
2023-01-08T08:35:48.850Z,12.70
2023-01-08T08:37:50.555Z,12.70
2023-01-08T08:39:52.336Z,12.70
2023-01-08T08:41:53.998Z,12.70
2023-01-08T08:43:55.647Z,12.70
2023-01-08T08:45:57.344Z,12.70
2023-01-08T08:47:58.966Z,12.80
2023-01-08T08:50:02.073Z,12.70
2023-01-08T08:52:04.535Z,12.80
2023-01-08T08:54:06.296Z,12.70
2023-01-08T08:56:07.984Z,12.70
2023-01-08T08:58:11.250Z,12.80
2023-01-08T09:00:13.253Z,12.70
2023-01-08T09:02:15.014Z,12.70
2023-01-08T09:04:16.847Z,12.70
2023-01-08T09:06:18.558Z,12.70
2023-01-08T09:08:20.215Z,12.70
2023-01-08T09:10:22.482Z,12.70
2023-01-08T09:12:24.180Z,12.70
2023-01-08T09:14:25.820Z,12.70
2023-01-08T09:16:27.436Z,12.70
2023-01-08T09:18:29.134Z,12.70
2023-01-08T09:20:30.779Z,12.70
2023-01-08T09:22:32.376Z,12.70
2023-01-08T09:24:34.157Z,12.70
2023-01-08T09:26:35.964Z,12.80
2023-01-08T09:28:39.024Z,12.70
2023-01-08T09:30:40.700Z,12.80
2023-01-08T09:32:42.351Z,12.70
2023-01-08T09:34:43.972Z,12.70
2023-01-08T09:36:45.665Z,12.70
2023-01-08T09:38:47.308Z,12.70
2023-01-08T09:40:48.931Z,12.70
2023-01-08T09:42:59.645Z,12.70
2023-01-08T09:45:01.869Z,12.70
2023-01-08T09:47:04.615Z,12.70
2023-01-08T09:49:07.684Z,12.70
2023-01-08T09:51:16.866Z,12.70
2023-01-08T09:53:18.838Z,12.70
2023-01-08T09:55:20.537Z,12.70
2023-01-08T09:57:22.495Z,12.70
2023-01-08T09:59:24.240Z,12.70
2023-01-08T10:01:27.362Z,12.70
2023-01-08T10:03:30.509Z,12.70
2023-01-08T10:05:32.241Z,12.70
2023-01-08T10:07:33.885Z,12.70
2023-01-08T10:09:35.542Z,12.70
2023-01-08T10:11:42.165Z,12.70
2023-01-08T10:13:49.452Z,12.70
2023-01-08T10:15:51.249Z,12.70
2023-01-08T10:17:59.032Z,12.70
2023-01-08T10:20:00.755Z,12.70
2023-01-08T10:22:02.414Z,12.70
2023-01-08T10:24:04.150Z,12.70
2023-01-08T10:26:05.916Z,12.70
2023-01-08T10:28:16.925Z,12.70
2023-01-08T10:30:23.230Z,12.70
2023-01-08T10:32:34.413Z,12.70
2023-01-08T10:34:46.649Z,12.70
2023-01-08T10:36:48.335Z,12.70
2023-01-08T10:38:52.790Z,12.70
2023-01-08T10:40:55.301Z,12.70
2023-01-08T10:42:58.466Z,12.70
2023-01-08T10:45:02.008Z,12.70
2023-01-08T10:47:04.589Z,12.70
2023-01-08T10:49:07.747Z,12.70
2023-01-08T10:51:20.428Z,12.70
2023-01-08T10:53:24.384Z,12.70
2023-01-08T10:55:26.046Z,12.70
2023-01-08T10:57:28.958Z,12.70
2023-01-08T10:59:31.869Z,12.70
2023-01-08T11:01:33.741Z,12.70
2023-01-08T11:03:35.435Z,12.70
2023-01-08T11:05:38.301Z,12.80
2023-01-08T11:07:40.448Z,12.70
2023-01-08T11:09:46.082Z,12.70
2023-01-08T11:11:48.231Z,12.80
2023-01-08T11:13:59.919Z,12.80
2023-01-08T11:16:04.486Z,12.80
2023-01-08T11:18:20.210Z,12.80
2023-01-08T11:20:24.012Z,12.80
2023-01-08T11:22:26.039Z,12.80
2023-01-08T11:24:29.225Z,12.80
2023-01-08T11:26:31.349Z,12.80
2023-01-08T11:28:38.784Z,12.90
2023-01-08T11:30:40.646Z,12.90
2023-01-08T11:33:00.901Z,12.90
2023-01-08T11:35:04.120Z,12.90
2023-01-08T11:37:12.125Z,12.90
2023-01-08T11:39:13.751Z,12.90
2023-01-08T11:41:18.623Z,12.90
2023-01-08T11:43:23.146Z,12.90
2023-01-08T11:45:37.070Z,12.90
2023-01-08T11:47:41.504Z,12.90
2023-01-08T11:49:52.292Z,13.00
2023-01-08T11:51:56.898Z,13.00
2023-01-08T11:53:59.456Z,13.00
2023-01-08T11:56:07.924Z,13.00
2023-01-08T11:58:26.406Z,13.10
2023-01-08T12:00:45.831Z,13.10
2023-01-08T12:02:50.185Z,13.20
2023-01-08T12:04:54.727Z,13.20
2023-01-08T12:06:56.371Z,13.30
2023-01-08T12:08:58.053Z,13.30
2023-01-08T12:11:14.817Z,13.40
2023-01-08T12:13:19.310Z,13.50
2023-01-08T12:15:29.292Z,13.50
2023-01-08T12:17:38.381Z,13.50
2023-01-08T12:19:40.052Z,13.60
2023-01-08T12:22:00.500Z,13.70
2023-01-08T12:24:29.812Z,13.70
2023-01-08T12:26:34.350Z,13.80
2023-01-08T12:28:41.900Z,13.80
2023-01-08T12:30:51.975Z,13.90
2023-01-08T12:32:58.295Z,13.90
2023-01-08T12:35:00.273Z,13.90
2023-01-08T12:37:13.137Z,14.00
2023-01-08T12:39:21.270Z,14.00
2023-01-08T12:41:23.424Z,14.00
2023-01-08T12:43:31.529Z,14.00
2023-01-08T12:45:36.616Z,14.00
2023-01-08T12:47:40.161Z,14.00
2023-01-08T12:50:05.033Z,14.00
2023-01-08T12:52:16.785Z,14.00
2023-01-08T12:54:18.447Z,14.00
2023-01-08T12:56:24.176Z,14.00
2023-01-08T12:58:42.651Z,14.00
2023-01-08T13:00:52.334Z,13.90
2023-01-08T13:02:59.488Z,14.00
2023-01-08T13:05:28.263Z,14.00
2023-01-08T13:07:35.962Z,14.00
2023-01-08T13:09:37.634Z,14.00
2023-01-08T13:11:42.175Z,14.00
2023-01-08T13:13:45.199Z,14.00
2023-01-08T13:15:46.911Z,14.00
2023-01-08T13:17:49.654Z,14.00
2023-01-08T13:19:53.440Z,14.00
2023-01-08T13:21:56.704Z,13.90
2023-01-08T13:24:21.181Z,14.00
2023-01-08T13:26:28.363Z,13.90
2023-01-08T13:28:41.217Z,13.90
2023-01-08T13:30:42.945Z,14.00
2023-01-08T13:32:47.168Z,14.00
2023-01-08T13:34:48.909Z,14.00
2023-01-08T13:36:57.892Z,14.00
2023-01-08T13:39:19.490Z,14.00
2023-01-08T13:41:25.046Z,14.00
2023-01-08T13:43:38.671Z,14.00
2023-01-08T13:45:41.108Z,14.00
2023-01-08T13:47:43.128Z,14.00
2023-01-08T13:49:46.510Z,14.00
2023-01-08T13:51:48.554Z,14.10
2023-01-08T13:53:50.740Z,14.00
2023-01-08T13:56:02.882Z,14.00
2023-01-08T13:58:05.858Z,14.00
2023-01-08T14:00:09.628Z,14.00
2023-01-08T14:02:22.304Z,14.00
2023-01-08T14:04:24.422Z,14.00
2023-01-08T14:06:27.250Z,14.10
2023-01-08T14:08:28.962Z,14.00
2023-01-08T14:10:30.908Z,14.00
2023-01-08T14:12:34.161Z,14.00
2023-01-08T14:14:38.434Z,14.00
2023-01-08T14:16:40.667Z,14.00
2023-01-08T14:18:43.772Z,14.00
2023-01-08T14:20:48.025Z,14.10
2023-01-08T14:22:49.789Z,14.00
2023-01-08T14:24:56.513Z,14.00
2023-01-08T14:26:59.339Z,14.00
2023-01-08T14:29:02.263Z,14.00
2023-01-08T14:31:04.064Z,14.00
2023-01-08T14:33:11.473Z,14.00
2023-01-08T14:35:20.833Z,14.00
2023-01-08T14:37:22.687Z,14.00
2023-01-08T14:39:25.942Z,14.00
2023-01-08T14:41:54.349Z,14.00
2023-01-08T14:43:56.087Z,14.00
2023-01-08T14:45:57.881Z,14.00
2023-01-08T14:48:01.432Z,14.00
2023-01-08T14:50:03.264Z,14.00
2023-01-08T14:52:05.074Z,14.00
2023-01-08T14:54:08.522Z,14.00
2023-01-08T14:56:14.782Z,13.90
2023-01-08T14:58:18.215Z,13.90
2023-01-08T15:00:22.775Z,13.90
2023-01-08T15:02:36.752Z,13.90
2023-01-08T15:04:38.620Z,13.90
2023-01-08T15:06:41.303Z,13.90
2023-01-08T15:08:44.431Z,13.90
2023-01-08T15:10:46.112Z,13.90
2023-01-08T15:12:56.271Z,13.90
2023-01-08T15:15:08.852Z,13.90
2023-01-08T15:17:12.110Z,13.80
2023-01-08T15:19:15.389Z,13.90
2023-01-08T15:21:22.129Z,13.90
2023-01-08T15:23:25.748Z,13.90
2023-01-08T15:25:28.410Z,13.90
2023-01-08T15:27:36.971Z,13.90
2023-01-08T15:29:40.047Z,13.90
2023-01-08T15:31:41.719Z,13.90
2023-01-08T15:33:44.652Z,13.90
2023-01-08T15:35:46.706Z,13.90
2023-01-08T15:37:48.366Z,13.90
2023-01-08T15:39:50.074Z,14.00
2023-01-08T15:42:10.665Z,13.90
2023-01-08T15:44:12.919Z,13.90
2023-01-08T15:46:15.954Z,13.90
2023-01-08T15:48:17.647Z,13.90
2023-01-08T15:50:20.415Z,14.00
2023-01-08T15:52:24.359Z,13.90
2023-01-08T15:54:26.211Z,14.00
2023-01-08T15:56:28.235Z,13.90
2023-01-08T15:58:30.050Z,14.00
2023-01-08T16:00:32.649Z,14.00
2023-01-08T16:02:40.517Z,14.00
2023-01-08T16:04:42.655Z,14.00
2023-01-08T16:06:44.337Z,14.00
2023-01-08T16:08:46.232Z,14.00
2023-01-08T16:10:54.173Z,14.00
2023-01-08T16:12:56.033Z,14.00
2023-01-08T16:14:57.682Z,14.00
2023-01-08T16:17:01.303Z,14.00
2023-01-08T16:19:03.009Z,14.00
2023-01-08T16:21:05.561Z,14.00
2023-01-08T16:23:07.437Z,14.00
2023-01-08T16:25:09.600Z,14.00
2023-01-08T16:27:11.269Z,14.00
2023-01-08T16:29:13.100Z,14.00
2023-01-08T16:31:14.890Z,14.00
2023-01-08T16:33:16.575Z,14.10
2023-01-08T16:35:18.750Z,14.00
2023-01-08T16:37:20.895Z,14.10
2023-01-08T16:39:22.567Z,14.00
2023-01-08T16:41:24.310Z,14.00
2023-01-08T16:43:26.880Z,14.00
2023-01-08T16:45:28.579Z,14.00
2023-01-08T16:47:30.363Z,14.00
2023-01-08T16:49:33.492Z,14.00
2023-01-08T16:51:35.099Z,14.00
2023-01-08T16:53:36.853Z,14.00
2023-01-08T16:55:39.097Z,14.00
2023-01-08T16:57:40.825Z,14.00
2023-01-08T16:59:42.585Z,14.00
2023-01-08T17:01:44.382Z,14.00
2023-01-08T17:03:46.117Z,14.00
2023-01-08T17:05:48.184Z,14.00
2023-01-08T17:07:54.047Z,14.00
2023-01-08T17:09:55.762Z,14.00
2023-01-08T17:11:57.501Z,14.00
2023-01-08T17:13:59.260Z,14.00
2023-01-08T17:16:03.036Z,14.00
2023-01-08T17:18:04.782Z,13.90
2023-01-08T17:20:06.807Z,13.90
2023-01-08T17:22:08.585Z,13.90
2023-01-08T17:24:10.365Z,13.90
2023-01-08T17:26:13.936Z,14.00
2023-01-08T17:28:15.600Z,14.00
2023-01-08T17:30:17.460Z,13.90
2023-01-08T17:32:19.198Z,14.00
2023-01-08T17:34:21.008Z,14.00
2023-01-08T17:36:24.241Z,14.00
2023-01-08T17:38:25.934Z,14.00
2023-01-08T17:40:27.700Z,14.00
2023-01-08T17:42:29.719Z,14.00
2023-01-08T17:44:31.383Z,14.00
2023-01-08T17:46:36.882Z,14.00
2023-01-08T17:48:38.586Z,14.00
2023-01-08T17:50:40.367Z,14.00
2023-01-08T17:52:42.061Z,14.00
2023-01-08T17:54:43.727Z,14.00
2023-01-08T17:56:45.446Z,13.90
2023-01-08T17:58:49.024Z,14.00
2023-01-08T18:00:50.871Z,14.00
2023-01-08T18:02:52.779Z,14.00
2023-01-08T18:04:54.570Z,14.00
2023-01-08T18:06:56.277Z,14.00
2023-01-08T18:08:58.208Z,14.00
2023-01-08T18:11:04.203Z,14.00
2023-01-08T18:13:05.880Z,14.00
2023-01-08T18:15:08.492Z,14.00
2023-01-08T18:17:10.335Z,14.00
2023-01-08T18:19:12.583Z,14.00
2023-01-08T18:21:14.268Z,14.00
2023-01-08T18:23:15.957Z,13.90
2023-01-08T18:25:17.738Z,13.90
2023-01-08T18:27:19.504Z,13.90
2023-01-08T18:29:21.345Z,14.00
2023-01-08T18:31:23.395Z,14.00
2023-01-08T18:33:25.196Z,13.90
2023-01-08T18:35:26.902Z,13.90
2023-01-08T18:37:28.652Z,13.90
2023-01-08T18:39:30.952Z,13.90
2023-01-08T18:41:51.708Z,13.90
2023-01-08T18:43:56.401Z,13.90
2023-01-08T18:45:59.122Z,13.90
2023-01-08T18:48:01.853Z,13.90
2023-01-08T18:50:03.835Z,13.90
2023-01-08T18:52:05.934Z,13.80
2023-01-08T18:54:08.382Z,13.80
2023-01-08T18:56:11.174Z,13.80
2023-01-08T18:58:12.894Z,13.90
2023-01-08T19:00:14.757Z,13.80
2023-01-08T19:02:18.794Z,13.80
2023-01-08T19:04:20.547Z,13.80
2023-01-08T19:06:22.554Z,13.80
2023-01-08T19:08:24.673Z,13.80
2023-01-08T19:10:26.369Z,13.80
2023-01-08T19:12:28.213Z,13.70
2023-01-08T19:14:30.191Z,13.70
2023-01-08T19:16:31.942Z,13.80
2023-01-08T19:18:34.146Z,13.80
2023-01-08T19:20:36.133Z,13.70
2023-01-08T19:22:38.045Z,13.70
2023-01-08T19:24:39.972Z,13.70
2023-01-08T19:26:41.805Z,13.70
2023-01-08T19:28:43.536Z,13.70
2023-01-08T19:30:45.408Z,13.70
2023-01-08T19:32:48.909Z,13.70
2023-01-08T19:34:50.818Z,13.70
2023-01-08T19:36:54.125Z,13.60
2023-01-08T19:38:56.011Z,13.70
2023-01-08T19:40:58.861Z,13.60
2023-01-08T19:43:32.791Z,13.60
2023-01-08T19:45:37.561Z,13.60
2023-01-08T19:47:40.628Z,13.60
2023-01-08T19:49:47.784Z,13.60
2023-01-08T19:51:51.045Z,13.60
2023-01-08T19:53:53.127Z,13.50
2023-01-08T19:55:55.092Z,13.50
2023-01-08T19:57:59.906Z,13.50
2023-01-08T20:00:01.781Z,13.50
2023-01-08T20:02:13.595Z,13.60
2023-01-08T20:04:15.561Z,13.50
2023-01-08T20:06:21.400Z,13.50
2023-01-08T20:08:23.395Z,13.50
2023-01-08T20:10:25.219Z,13.50
2023-01-08T20:12:28.655Z,13.50
2023-01-08T20:14:30.448Z,13.50
2023-01-08T20:16:32.201Z,13.50
2023-01-08T20:18:34.492Z,13.50
2023-01-08T20:20:36.246Z,13.50
2023-01-08T20:22:38.268Z,13.50
2023-01-08T20:24:41.427Z,13.50
2023-01-08T20:26:44.368Z,13.60
2023-01-08T20:28:46.864Z,13.50
2023-01-08T20:30:48.738Z,13.50
2023-01-08T20:35:04.674Z,13.50
2023-01-08T20:37:07.369Z,13.50
2023-01-08T20:39:11.441Z,13.50
2023-01-08T20:41:13.190Z,13.50
2023-01-08T20:43:14.847Z,13.60
2023-01-08T20:45:16.628Z,13.60
2023-01-08T20:47:18.475Z,13.50
2023-01-08T20:49:20.588Z,13.60
2023-01-08T20:51:22.747Z,13.60
2023-01-08T20:53:25.158Z,13.60
2023-01-08T20:55:26.955Z,13.60
2023-01-08T20:57:28.709Z,13.60
2023-01-08T20:59:30.572Z,13.60
2023-01-08T21:01:33.972Z,13.60
2023-01-08T21:03:37.617Z,13.60
2023-01-08T21:05:39.942Z,13.60
2023-01-08T21:07:41.668Z,13.60
2023-01-08T21:09:44.309Z,13.60
2023-01-08T21:11:46.132Z,13.60
2023-01-08T21:13:48.094Z,13.60
2023-01-08T21:15:49.844Z,13.60
2023-01-08T21:17:51.598Z,13.60
2023-01-08T21:19:53.331Z,13.50
2023-01-08T21:21:55.121Z,13.60
2023-01-08T21:23:57.359Z,13.60
2023-01-08T21:26:00.175Z,13.60
2023-01-08T21:28:01.985Z,13.60
2023-01-08T21:30:05.210Z,13.60
2023-01-08T21:32:07.814Z,13.60
2023-01-08T21:34:10.521Z,13.60
2023-01-08T21:36:14.768Z,13.60
2023-01-08T21:38:16.506Z,13.60
2023-01-08T21:40:18.730Z,13.60
2023-01-08T21:42:38.947Z,13.60
2023-01-08T21:44:59.494Z,13.60
2023-01-08T21:47:01.754Z,13.60
2023-01-08T21:49:03.462Z,13.60
2023-01-08T21:51:05.265Z,13.50
2023-01-08T21:53:25.682Z,13.60
2023-01-08T21:55:27.518Z,13.60
2023-01-08T21:57:29.321Z,13.60
2023-01-08T21:59:31.086Z,13.60
2023-01-08T22:01:32.977Z,13.60
2023-01-08T22:03:34.795Z,13.60
2023-01-08T22:05:36.551Z,13.60
2023-01-08T22:07:38.330Z,13.60
2023-01-08T22:09:40.371Z,13.60
2023-01-08T22:11:42.091Z,13.60
2023-01-08T22:13:43.827Z,13.60
2023-01-08T22:15:45.648Z,13.60
2023-01-08T22:17:47.373Z,13.60
2023-01-08T22:19:49.161Z,13.60
2023-01-08T22:21:50.809Z,13.60
2023-01-08T22:23:52.537Z,13.60
2023-01-08T22:25:54.159Z,13.60
2023-01-08T22:27:56.278Z,13.60
2023-01-08T22:29:57.936Z,13.60
2023-01-08T22:31:59.673Z,13.50
2023-01-08T22:34:01.252Z,13.50
2023-01-08T22:36:03.838Z,13.60
2023-01-08T22:38:05.429Z,13.50
2023-01-08T22:40:07.364Z,13.60
2023-01-08T22:42:09.064Z,13.50
2023-01-08T22:44:10.994Z,13.60
2023-01-08T22:46:13.524Z,13.50
2023-01-08T22:48:15.256Z,13.60
2023-01-08T22:50:17.023Z,13.60
2023-01-08T22:52:18.713Z,13.50
2023-01-08T22:54:20.495Z,13.50
2023-01-08T22:56:22.155Z,13.60
2023-01-08T22:58:23.796Z,13.60
2023-01-08T23:00:25.515Z,13.50
2023-01-08T23:02:27.157Z,13.50
2023-01-08T23:04:28.848Z,13.50
2023-01-08T23:06:30.937Z,13.50
2023-01-08T23:08:32.647Z,13.60
2023-01-08T23:10:34.672Z,13.60
2023-01-08T23:12:36.388Z,13.50
2023-01-08T23:14:39.094Z,13.50
2023-01-08T23:16:40.803Z,13.50
2023-01-08T23:18:42.526Z,13.50
2023-01-08T23:20:44.229Z,13.50
2023-01-08T23:22:46.314Z,13.40
2023-01-08T23:24:48.020Z,13.40
2023-01-08T23:26:49.753Z,13.40
2023-01-08T23:28:51.900Z,13.40
2023-01-08T23:30:53.572Z,13.50
2023-01-08T23:32:55.211Z,13.40
2023-01-08T23:34:56.892Z,13.40
2023-01-08T23:36:58.564Z,13.40
2023-01-08T23:39:00.202Z,13.40
2023-01-08T23:41:04.923Z,13.40
2023-01-08T23:43:06.535Z,13.40
2023-01-08T23:45:11.108Z,13.40
2023-01-08T23:47:12.932Z,13.40
2023-01-08T23:49:14.577Z,13.40
2023-01-08T23:51:16.199Z,13.50
2023-01-08T23:53:17.808Z,13.30
2023-01-08T23:55:19.504Z,13.40
2023-01-08T23:57:21.796Z,13.40
2023-01-08T23:59:23.436Z,13.40
